sensor_id;sensor_type;location;lat;lon;timestamp;P1;durP1;ratioP1;P2;durP2;ratioP2
14665;SDS011;7420;53.574;10.040;2022-07-22T00:01:07;32.83;;;23.55;;
14665;SDS011;7420;53.574;10.040;2022-07-22T00:03:32;30.05;;;22.13;;
14665;SDS011;7420;53.574;10.040;2022-07-22T00:05:58;33.28;;;22.85;;
14665;SDS011;7420;53.574;10.040;2022-07-22T00:08:23;29.83;;;22.13;;
14665;SDS011;7420;53.574;10.040;2022-07-22T00:10:48;29.38;;;21.35;;
14665;SDS011;7420;53.574;10.040;2022-07-22T00:13:14;32.20;;;23.05;;
14665;SDS011;7420;53.574;10.040;2022-07-22T00:15:39;29.33;;;22.20;;
14665;SDS011;7420;53.574;10.040;2022-07-22T00:18:05;31.95;;;20.83;;
14665;SDS011;7420;53.574;10.040;2022-07-22T00:20:30;26.90;;;19.92;;
14665;SDS011;7420;53.574;10.040;2022-07-22T00:22:55;29.40;;;21.48;;
14665;SDS011;7420;53.574;10.040;2022-07-22T00:25:21;26.25;;;19.45;;
14665;SDS011;7420;53.574;10.040;2022-07-22T00:27:46;27.13;;;19.38;;
14665;SDS011;7420;53.574;10.040;2022-07-22T00:30:12;40.25;;;24.45;;
14665;SDS011;7420;53.574;10.040;2022-07-22T00:32:37;37.90;;;21.45;;
14665;SDS011;7420;53.574;10.040;2022-07-22T00:35:03;37.63;;;21.77;;
14665;SDS011;7420;53.574;10.040;2022-07-22T00:37:29;39.47;;;23.45;;
14665;SDS011;7420;53.574;10.040;2022-07-22T00:39:54;39.72;;;24.65;;
14665;SDS011;7420;53.574;10.040;2022-07-22T00:42:20;39.47;;;23.15;;
14665;SDS011;7420;53.574;10.040;2022-07-22T00:44:45;32.53;;;20.48;;
14665;SDS011;7420;53.574;10.040;2022-07-22T00:47:10;31.45;;;19.45;;
14665;SDS011;7420;53.574;10.040;2022-07-22T00:49:36;29.75;;;19.95;;
14665;SDS011;7420;53.574;10.040;2022-07-22T00:52:01;30.13;;;19.33;;
14665;SDS011;7420;53.574;10.040;2022-07-22T00:54:28;22.13;;;13.93;;
14665;SDS011;7420;53.574;10.040;2022-07-22T00:56:53;21.17;;;12.02;;
14665;SDS011;7420;53.574;10.040;2022-07-22T00:59:19;18.73;;;12.10;;
14665;SDS011;7420;53.574;10.040;2022-07-22T01:01:45;13.23;;;9.88;;
14665;SDS011;7420;53.574;10.040;2022-07-22T01:04:10;11.40;;;8.10;;
14665;SDS011;7420;53.574;10.040;2022-07-22T01:06:35;10.90;;;7.47;;
14665;SDS011;7420;53.574;10.040;2022-07-22T01:09:01;10.38;;;6.57;;
14665;SDS011;7420;53.574;10.040;2022-07-22T01:11:27;6.22;;;4.97;;
14665;SDS011;7420;53.574;10.040;2022-07-22T01:13:53;7.55;;;5.30;;
14665;SDS011;7420;53.574;10.040;2022-07-22T01:16:20;7.55;;;5.15;;
14665;SDS011;7420;53.574;10.040;2022-07-22T01:18:46;7.75;;;4.65;;
14665;SDS011;7420;53.574;10.040;2022-07-22T01:21:13;4.78;;;3.78;;
14665;SDS011;7420;53.574;10.040;2022-07-22T01:23:39;3.10;;;2.40;;
14665;SDS011;7420;53.574;10.040;2022-07-22T01:26:04;4.43;;;2.75;;
14665;SDS011;7420;53.574;10.040;2022-07-22T01:28:30;4.18;;;2.67;;
14665;SDS011;7420;53.574;10.040;2022-07-22T01:30:56;6.70;;;3.70;;
14665;SDS011;7420;53.574;10.040;2022-07-22T01:33:22;4.90;;;3.47;;
14665;SDS011;7420;53.574;10.040;2022-07-22T01:35:48;6.82;;;4.18;;
14665;SDS011;7420;53.574;10.040;2022-07-22T01:38:13;6.35;;;5.20;;
14665;SDS011;7420;53.574;10.040;2022-07-22T01:40:40;6.28;;;4.85;;
14665;SDS011;7420;53.574;10.040;2022-07-22T01:43:06;10.07;;;4.70;;
14665;SDS011;7420;53.574;10.040;2022-07-22T01:45:31;12.25;;;6.68;;
14665;SDS011;7420;53.574;10.040;2022-07-22T01:47:56;12.48;;;7.15;;
14665;SDS011;7420;53.574;10.040;2022-07-22T01:50:23;14.90;;;8.20;;
14665;SDS011;7420;53.574;10.040;2022-07-22T01:52:48;14.55;;;6.57;;
14665;SDS011;7420;53.574;10.040;2022-07-22T01:55:14;13.07;;;6.78;;
14665;SDS011;7420;53.574;10.040;2022-07-22T01:57:39;15.05;;;7.38;;
14665;SDS011;7420;53.574;10.040;2022-07-22T02:00:05;13.43;;;7.30;;
14665;SDS011;7420;53.574;10.040;2022-07-22T02:02:33;14.82;;;8.35;;
14665;SDS011;7420;53.574;10.040;2022-07-22T02:04:58;16.33;;;8.55;;
14665;SDS011;7420;53.574;10.040;2022-07-22T02:07:23;21.38;;;8.80;;
14665;SDS011;7420;53.574;10.040;2022-07-22T02:09:50;17.20;;;8.48;;
14665;SDS011;7420;53.574;10.040;2022-07-22T02:12:16;13.25;;;7.15;;
14665;SDS011;7420;53.574;10.040;2022-07-22T02:14:42;16.20;;;8.68;;
14665;SDS011;7420;53.574;10.040;2022-07-22T02:17:07;13.80;;;7.28;;
14665;SDS011;7420;53.574;10.040;2022-07-22T02:19:32;16.55;;;7.68;;
14665;SDS011;7420;53.574;10.040;2022-07-22T02:21:58;19.55;;;7.47;;
14665;SDS011;7420;53.574;10.040;2022-07-22T02:24:23;12.38;;;6.65;;
14665;SDS011;7420;53.574;10.040;2022-07-22T02:26:48;16.75;;;6.28;;
14665;SDS011;7420;53.574;10.040;2022-07-22T02:29:14;12.85;;;5.88;;
14665;SDS011;7420;53.574;10.040;2022-07-22T02:31:39;10.05;;;5.80;;
14665;SDS011;7420;53.574;10.040;2022-07-22T02:34:05;11.98;;;5.25;;
14665;SDS011;7420;53.574;10.040;2022-07-22T02:36:30;12.40;;;5.45;;
14665;SDS011;7420;53.574;10.040;2022-07-22T02:38:55;10.57;;;4.68;;
14665;SDS011;7420;53.574;10.040;2022-07-22T02:41:21;8.60;;;4.60;;
14665;SDS011;7420;53.574;10.040;2022-07-22T02:43:46;8.40;;;4.45;;
14665;SDS011;7420;53.574;10.040;2022-07-22T02:46:11;14.93;;;4.68;;
14665;SDS011;7420;53.574;10.040;2022-07-22T02:48:37;10.20;;;4.43;;
14665;SDS011;7420;53.574;10.040;2022-07-22T02:51:02;9.40;;;4.07;;
14665;SDS011;7420;53.574;10.040;2022-07-22T02:53:28;9.25;;;4.20;;
14665;SDS011;7420;53.574;10.040;2022-07-22T02:55:53;12.05;;;4.50;;
14665;SDS011;7420;53.574;10.040;2022-07-22T02:58:19;9.10;;;3.72;;
14665;SDS011;7420;53.574;10.040;2022-07-22T03:00:44;9.55;;;4.15;;
14665;SDS011;7420;53.574;10.040;2022-07-22T03:03:10;13.02;;;4.75;;
14665;SDS011;7420;53.574;10.040;2022-07-22T03:05:35;10.77;;;3.88;;
14665;SDS011;7420;53.574;10.040;2022-07-22T03:08:01;14.73;;;5.43;;
14665;SDS011;7420;53.574;10.040;2022-07-22T03:10:26;12.27;;;4.75;;
14665;SDS011;7420;53.574;10.040;2022-07-22T03:12:51;15.25;;;4.35;;
14665;SDS011;7420;53.574;10.040;2022-07-22T03:15:17;14.05;;;4.65;;
14665;SDS011;7420;53.574;10.040;2022-07-22T03:17:42;12.45;;;3.88;;
14665;SDS011;7420;53.574;10.040;2022-07-22T03:20:08;10.23;;;3.85;;
14665;SDS011;7420;53.574;10.040;2022-07-22T03:22:35;14.60;;;3.85;;
14665;SDS011;7420;53.574;10.040;2022-07-22T03:25:00;9.40;;;3.55;;
14665;SDS011;7420;53.574;10.040;2022-07-22T03:27:26;10.23;;;4.38;;
14665;SDS011;7420;53.574;10.040;2022-07-22T03:29:51;11.32;;;4.45;;
14665;SDS011;7420;53.574;10.040;2022-07-22T03:32:17;10.05;;;4.00;;
14665;SDS011;7420;53.574;10.040;2022-07-22T03:34:43;11.05;;;3.53;;
14665;SDS011;7420;53.574;10.040;2022-07-22T03:37:08;11.38;;;4.10;;
14665;SDS011;7420;53.574;10.040;2022-07-22T03:39:33;9.98;;;4.68;;
14665;SDS011;7420;53.574;10.040;2022-07-22T03:41:59;10.52;;;4.00;;
14665;SDS011;7420;53.574;10.040;2022-07-22T03:44:24;11.45;;;4.07;;
14665;SDS011;7420;53.574;10.040;2022-07-22T03:46:50;10.45;;;4.85;;
14665;SDS011;7420;53.574;10.040;2022-07-22T03:49:15;10.75;;;4.20;;
14665;SDS011;7420;53.574;10.040;2022-07-22T03:51:41;6.22;;;3.65;;
14665;SDS011;7420;53.574;10.040;2022-07-22T03:54:06;10.75;;;4.15;;
14665;SDS011;7420;53.574;10.040;2022-07-22T03:56:31;6.80;;;3.58;;
14665;SDS011;7420;53.574;10.040;2022-07-22T03:58:57;6.38;;;3.72;;
14665;SDS011;7420;53.574;10.040;2022-07-22T04:01:23;10.68;;;4.05;;
14665;SDS011;7420;53.574;10.040;2022-07-22T04:03:48;9.05;;;4.18;;
14665;SDS011;7420;53.574;10.040;2022-07-22T04:06:14;10.63;;;4.22;;
14665;SDS011;7420;53.574;10.040;2022-07-22T04:08:39;5.95;;;3.67;;
14665;SDS011;7420;53.574;10.040;2022-07-22T04:11:05;9.98;;;4.20;;
14665;SDS011;7420;53.574;10.040;2022-07-22T04:13:30;6.60;;;3.60;;
14665;SDS011;7420;53.574;10.040;2022-07-22T04:15:56;10.45;;;4.57;;
14665;SDS011;7420;53.574;10.040;2022-07-22T04:18:21;8.30;;;4.05;;
14665;SDS011;7420;53.574;10.040;2022-07-22T04:20:47;12.27;;;4.72;;
14665;SDS011;7420;53.574;10.040;2022-07-22T04:23:12;9.93;;;4.13;;
14665;SDS011;7420;53.574;10.040;2022-07-22T04:25:37;7.82;;;3.70;;
14665;SDS011;7420;53.574;10.040;2022-07-22T04:28:03;9.43;;;3.80;;
14665;SDS011;7420;53.574;10.040;2022-07-22T04:30:29;10.50;;;3.90;;
14665;SDS011;7420;53.574;10.040;2022-07-22T04:32:54;12.57;;;4.03;;
14665;SDS011;7420;53.574;10.040;2022-07-22T04:35:20;14.18;;;3.97;;
14665;SDS011;7420;53.574;10.040;2022-07-22T04:37:45;5.97;;;3.45;;
14665;SDS011;7420;53.574;10.040;2022-07-22T04:40:10;9.38;;;3.97;;
14665;SDS011;7420;53.574;10.040;2022-07-22T04:42:36;10.45;;;3.85;;
14665;SDS011;7420;53.574;10.040;2022-07-22T04:45:02;6.45;;;3.55;;
14665;SDS011;7420;53.574;10.040;2022-07-22T04:47:27;9.40;;;3.80;;
14665;SDS011;7420;53.574;10.040;2022-07-22T04:49:53;9.43;;;3.00;;
14665;SDS011;7420;53.574;10.040;2022-07-22T04:52:18;7.72;;;3.70;;
14665;SDS011;7420;53.574;10.040;2022-07-22T04:54:44;9.10;;;3.60;;
14665;SDS011;7420;53.574;10.040;2022-07-22T04:57:09;6.63;;;3.53;;
14665;SDS011;7420;53.574;10.040;2022-07-22T04:59:35;7.43;;;3.67;;
14665;SDS011;7420;53.574;10.040;2022-07-22T05:02:01;7.05;;;3.20;;
14665;SDS011;7420;53.574;10.040;2022-07-22T05:04:28;9.07;;;4.05;;
14665;SDS011;7420;53.574;10.040;2022-07-22T05:06:53;8.48;;;3.83;;
14665;SDS011;7420;53.574;10.040;2022-07-22T05:09:18;6.75;;;4.18;;
14665;SDS011;7420;53.574;10.040;2022-07-22T05:11:44;7.40;;;3.40;;
14665;SDS011;7420;53.574;10.040;2022-07-22T05:14:09;10.63;;;4.25;;
14665;SDS011;7420;53.574;10.040;2022-07-22T05:16:35;6.40;;;3.70;;
14665;SDS011;7420;53.574;10.040;2022-07-22T05:19:04;7.65;;;3.90;;
14665;SDS011;7420;53.574;10.040;2022-07-22T05:21:30;6.32;;;4.05;;
14665;SDS011;7420;53.574;10.040;2022-07-22T05:23:56;8.35;;;4.60;;
14665;SDS011;7420;53.574;10.040;2022-07-22T05:26:21;9.82;;;4.22;;
14665;SDS011;7420;53.574;10.040;2022-07-22T05:28:46;10.10;;;5.03;;
14665;SDS011;7420;53.574;10.040;2022-07-22T05:31:12;9.48;;;4.03;;
14665;SDS011;7420;53.574;10.040;2022-07-22T05:33:37;11.70;;;4.95;;
14665;SDS011;7420;53.574;10.040;2022-07-22T05:36:03;8.63;;;4.13;;
14665;SDS011;7420;53.574;10.040;2022-07-22T05:38:31;9.80;;;4.63;;
14665;SDS011;7420;53.574;10.040;2022-07-22T05:40:58;8.38;;;4.13;;
14665;SDS011;7420;53.574;10.040;2022-07-22T05:43:23;12.82;;;4.57;;
14665;SDS011;7420;53.574;10.040;2022-07-22T05:45:48;6.60;;;3.67;;
14665;SDS011;7420;53.574;10.040;2022-07-22T05:48:14;9.55;;;4.03;;
14665;SDS011;7420;53.574;10.040;2022-07-22T05:50:39;9.18;;;4.35;;
14665;SDS011;7420;53.574;10.040;2022-07-22T05:53:04;9.00;;;3.92;;
14665;SDS011;7420;53.574;10.040;2022-07-22T05:55:30;10.55;;;4.25;;
14665;SDS011;7420;53.574;10.040;2022-07-22T05:57:55;13.35;;;4.00;;
14665;SDS011;7420;53.574;10.040;2022-07-22T06:00:21;10.48;;;3.97;;
14665;SDS011;7420;53.574;10.040;2022-07-22T06:02:46;9.57;;;4.28;;
14665;SDS011;7420;53.574;10.040;2022-07-22T06:05:11;11.93;;;4.40;;
14665;SDS011;7420;53.574;10.040;2022-07-22T06:07:37;13.23;;;4.47;;
14665;SDS011;7420;53.574;10.040;2022-07-22T06:10:02;9.38;;;3.83;;
14665;SDS011;7420;53.574;10.040;2022-07-22T06:12:28;7.05;;;4.10;;
14665;SDS011;7420;53.574;10.040;2022-07-22T06:14:54;9.32;;;4.53;;
14665;SDS011;7420;53.574;10.040;2022-07-22T06:17:19;12.27;;;4.85;;
14665;SDS011;7420;53.574;10.040;2022-07-22T06:19:45;12.32;;;4.32;;
14665;SDS011;7420;53.574;10.040;2022-07-22T06:22:10;13.68;;;5.38;;
14665;SDS011;7420;53.574;10.040;2022-07-22T06:24:36;12.07;;;3.95;;
14665;SDS011;7420;53.574;10.040;2022-07-22T06:27:01;12.30;;;4.10;;
14665;SDS011;7420;53.574;10.040;2022-07-22T06:29:26;14.73;;;4.53;;
14665;SDS011;7420;53.574;10.040;2022-07-22T06:31:52;12.07;;;4.30;;
14665;SDS011;7420;53.574;10.040;2022-07-22T06:34:18;9.98;;;4.20;;
14665;SDS011;7420;53.574;10.040;2022-07-22T06:36:44;10.10;;;4.82;;
14665;SDS011;7420;53.574;10.040;2022-07-22T06:39:09;11.98;;;4.47;;
14665;SDS011;7420;53.574;10.040;2022-07-22T06:41:34;14.25;;;4.97;;
14665;SDS011;7420;53.574;10.040;2022-07-22T06:44:00;14.63;;;4.25;;
14665;SDS011;7420;53.574;10.040;2022-07-22T06:46:25;12.32;;;5.15;;
14665;SDS011;7420;53.574;10.040;2022-07-22T06:48:50;10.35;;;4.75;;
14665;SDS011;7420;53.574;10.040;2022-07-22T06:51:16;11.82;;;4.85;;
14665;SDS011;7420;53.574;10.040;2022-07-22T06:53:41;10.30;;;4.45;;
14665;SDS011;7420;53.574;10.040;2022-07-22T06:56:07;11.73;;;4.82;;
14665;SDS011;7420;53.574;10.040;2022-07-22T06:58:32;10.85;;;5.15;;
14665;SDS011;7420;53.574;10.040;2022-07-22T07:00:57;13.05;;;4.57;;
14665;SDS011;7420;53.574;10.040;2022-07-22T07:03:23;16.70;;;5.63;;
14665;SDS011;7420;53.574;10.040;2022-07-22T07:05:50;10.38;;;4.15;;
14665;SDS011;7420;53.574;10.040;2022-07-22T07:08:16;9.45;;;4.55;;
14665;SDS011;7420;53.574;10.040;2022-07-22T07:10:41;12.23;;;4.25;;
14665;SDS011;7420;53.574;10.040;2022-07-22T07:13:07;13.18;;;4.55;;
14665;SDS011;7420;53.574;10.040;2022-07-22T07:15:32;12.75;;;3.80;;
14665;SDS011;7420;53.574;10.040;2022-07-22T07:17:57;10.63;;;4.35;;
14665;SDS011;7420;53.574;10.040;2022-07-22T07:20:23;11.85;;;4.32;;
14665;SDS011;7420;53.574;10.040;2022-07-22T07:22:49;8.48;;;4.00;;
14665;SDS011;7420;53.574;10.040;2022-07-22T07:25:15;10.77;;;4.00;;
14665;SDS011;7420;53.574;10.040;2022-07-22T07:27:41;10.85;;;3.95;;
14665;SDS011;7420;53.574;10.040;2022-07-22T07:30:06;11.82;;;4.63;;
14665;SDS011;7420;53.574;10.040;2022-07-22T07:32:33;10.40;;;4.03;;
14665;SDS011;7420;53.574;10.040;2022-07-22T07:34:59;9.98;;;4.22;;
14665;SDS011;7420;53.574;10.040;2022-07-22T07:37:25;12.15;;;3.65;;
14665;SDS011;7420;53.574;10.040;2022-07-22T07:39:50;9.57;;;4.32;;
14665;SDS011;7420;53.574;10.040;2022-07-22T07:42:15;12.80;;;4.43;;
14665;SDS011;7420;53.574;10.040;2022-07-22T07:44:41;12.88;;;4.43;;
14665;SDS011;7420;53.574;10.040;2022-07-22T07:47:06;13.07;;;3.72;;
14665;SDS011;7420;53.574;10.040;2022-07-22T07:49:32;12.57;;;3.80;;
14665;SDS011;7420;53.574;10.040;2022-07-22T07:51:57;16.05;;;4.72;;
14665;SDS011;7420;53.574;10.040;2022-07-22T07:54:22;11.82;;;4.05;;
14665;SDS011;7420;53.574;10.040;2022-07-22T07:56:48;13.20;;;4.40;;
14665;SDS011;7420;53.574;10.040;2022-07-22T07:59:13;11.23;;;3.50;;
14665;SDS011;7420;53.574;10.040;2022-07-22T08:01:39;11.20;;;3.70;;
14665;SDS011;7420;53.574;10.040;2022-07-22T08:04:05;10.50;;;3.60;;
14665;SDS011;7420;53.574;10.040;2022-07-22T08:06:30;10.75;;;4.13;;
14665;SDS011;7420;53.574;10.040;2022-07-22T08:08:55;9.35;;;3.10;;
14665;SDS011;7420;53.574;10.040;2022-07-22T08:11:21;8.55;;;3.33;;
14665;SDS011;7420;53.574;10.040;2022-07-22T08:13:46;11.73;;;3.33;;
14665;SDS011;7420;53.574;10.040;2022-07-22T08:16:12;9.32;;;3.40;;
14665;SDS011;7420;53.574;10.040;2022-07-22T08:18:37;7.70;;;3.42;;
14665;SDS011;7420;53.574;10.040;2022-07-22T08:21:03;9.57;;;3.40;;
14665;SDS011;7420;53.574;10.040;2022-07-22T08:23:29;9.50;;;3.55;;
14665;SDS011;7420;53.574;10.040;2022-07-22T08:25:54;8.65;;;3.70;;
14665;SDS011;7420;53.574;10.040;2022-07-22T08:28:19;7.85;;;3.38;;
14665;SDS011;7420;53.574;10.040;2022-07-22T08:30:45;8.75;;;3.70;;
14665;SDS011;7420;53.574;10.040;2022-07-22T08:33:10;4.82;;;2.53;;
14665;SDS011;7420;53.574;10.040;2022-07-22T08:35:36;10.05;;;3.20;;
14665;SDS011;7420;53.574;10.040;2022-07-22T08:38:01;12.13;;;3.47;;
14665;SDS011;7420;53.574;10.040;2022-07-22T08:40:27;8.10;;;2.97;;
14665;SDS011;7420;53.574;10.040;2022-07-22T08:42:52;8.40;;;2.90;;
14665;SDS011;7420;53.574;10.040;2022-07-22T08:45:18;9.88;;;3.33;;
14665;SDS011;7420;53.574;10.040;2022-07-22T08:47:45;9.52;;;3.22;;
14665;SDS011;7420;53.574;10.040;2022-07-22T08:50:14;7.40;;;2.40;;
14665;SDS011;7420;53.574;10.040;2022-07-22T08:52:40;5.28;;;2.60;;
14665;SDS011;7420;53.574;10.040;2022-07-22T08:55:06;10.82;;;3.17;;
14665;SDS011;7420;53.574;10.040;2022-07-22T08:57:32;9.40;;;2.90;;
14665;SDS011;7420;53.574;10.040;2022-07-22T08:59:59;8.93;;;2.67;;
14665;SDS011;7420;53.574;10.040;2022-07-22T09:02:26;8.32;;;2.80;;
14665;SDS011;7420;53.574;10.040;2022-07-22T09:04:53;6.47;;;2.80;;
14665;SDS011;7420;53.574;10.040;2022-07-22T09:07:27;10.25;;;3.03;;
14665;SDS011;7420;53.574;10.040;2022-07-22T09:09:57;8.38;;;2.55;;
14665;SDS011;7420;53.574;10.040;2022-07-22T09:12:23;12.05;;;3.47;;
14665;SDS011;7420;53.574;10.040;2022-07-22T09:14:50;10.98;;;3.13;;
14665;SDS011;7420;53.574;10.040;2022-07-22T09:19:50;7.10;;;2.40;;
14665;SDS011;7420;53.574;10.040;2022-07-22T09:30:30;5.78;;;2.40;;
14665;SDS011;7420;53.574;10.040;2022-07-22T09:32:56;6.38;;;2.67;;
14665;SDS011;7420;53.574;10.040;2022-07-22T09:35:22;6.18;;;2.55;;
14665;SDS011;7420;53.574;10.040;2022-07-22T09:38:00;4.95;;;2.33;;
14665;SDS011;7420;53.574;10.040;2022-07-22T09:40:33;7.18;;;2.47;;
14665;SDS011;7420;53.574;10.040;2022-07-22T09:43:08;8.85;;;2.90;;
14665;SDS011;7420;53.574;10.040;2022-07-22T09:45:45;8.60;;;2.47;;
14665;SDS011;7420;53.574;10.040;2022-07-22T09:48:18;7.32;;;2.70;;
14665;SDS011;7420;53.574;10.040;2022-07-22T09:50:45;9.25;;;2.75;;
14665;SDS011;7420;53.574;10.040;2022-07-22T09:53:11;10.38;;;2.80;;
14665;SDS011;7420;53.574;10.040;2022-07-22T09:55:37;6.55;;;2.63;;
14665;SDS011;7420;53.574;10.040;2022-07-22T09:58:04;10.30;;;3.05;;
14665;SDS011;7420;53.574;10.040;2022-07-22T10:00:32;8.25;;;3.03;;
14665;SDS011;7420;53.574;10.040;2022-07-22T10:02:59;8.45;;;2.67;;
14665;SDS011;7420;53.574;10.040;2022-07-22T10:05:30;6.18;;;2.53;;
14665;SDS011;7420;53.574;10.040;2022-07-22T10:08:02;4.68;;;2.10;;
14665;SDS011;7420;53.574;10.040;2022-07-22T10:10:29;5.13;;;2.28;;
14665;SDS011;7420;53.574;10.040;2022-07-22T10:12:56;5.57;;;2.53;;
14665;SDS011;7420;53.574;10.040;2022-07-22T10:15:24;3.55;;;2.17;;
14665;SDS011;7420;53.574;10.040;2022-07-22T10:17:54;6.32;;;1.98;;
14665;SDS011;7420;53.574;10.040;2022-07-22T10:20:22;8.77;;;2.40;;
14665;SDS011;7420;53.574;10.040;2022-07-22T10:22:53;7.57;;;2.40;;
14665;SDS011;7420;53.574;10.040;2022-07-22T10:25:21;6.45;;;2.20;;
14665;SDS011;7420;53.574;10.040;2022-07-22T10:27:49;7.65;;;2.88;;
14665;SDS011;7420;53.574;10.040;2022-07-22T10:30:23;4.80;;;2.63;;
14665;SDS011;7420;53.574;10.040;2022-07-22T10:33:05;8.80;;;2.95;;
14665;SDS011;7420;53.574;10.040;2022-07-22T10:35:50;8.00;;;2.85;;
14665;SDS011;7420;53.574;10.040;2022-07-22T10:38:18;12.98;;;3.30;;
14665;SDS011;7420;53.574;10.040;2022-07-22T10:43:21;5.50;;;2.55;;
14665;SDS011;7420;53.574;10.040;2022-07-22T10:45:55;10.90;;;3.58;;
14665;SDS011;7420;53.574;10.040;2022-07-22T10:53:41;7.03;;;2.53;;
14665;SDS011;7420;53.574;10.040;2022-07-22T11:01:39;8.13;;;2.60;;
14665;SDS011;7420;53.574;10.040;2022-07-22T11:06:40;7.70;;;3.00;;
14665;SDS011;7420;53.574;10.040;2022-07-22T11:09:07;7.65;;;3.22;;
14665;SDS011;7420;53.574;10.040;2022-07-22T11:16:59;8.88;;;2.47;;
14665;SDS011;7420;53.574;10.040;2022-07-22T11:19:26;8.18;;;2.80;;
14665;SDS011;7420;53.574;10.040;2022-07-22T11:21:55;11.63;;;3.05;;
14665;SDS011;7420;53.574;10.040;2022-07-22T11:24:22;5.03;;;2.60;;
14665;SDS011;7420;53.574;10.040;2022-07-22T11:26:49;4.90;;;2.70;;
14665;SDS011;7420;53.574;10.040;2022-07-22T11:29:17;8.40;;;3.00;;
14665;SDS011;7420;53.574;10.040;2022-07-22T11:31:56;10.20;;;2.42;;
14665;SDS011;7420;53.574;10.040;2022-07-22T11:34:23;5.32;;;2.22;;
14665;SDS011;7420;53.574;10.040;2022-07-22T11:36:49;6.50;;;2.67;;
14665;SDS011;7420;53.574;10.040;2022-07-22T11:39:20;7.50;;;2.72;;
14665;SDS011;7420;53.574;10.040;2022-07-22T11:41:48;4.93;;;2.30;;
14665;SDS011;7420;53.574;10.040;2022-07-22T11:44:17;3.92;;;2.33;;
14665;SDS011;7420;53.574;10.040;2022-07-22T11:46:44;6.97;;;2.30;;
14665;SDS011;7420;53.574;10.040;2022-07-22T11:49:12;7.60;;;2.95;;
14665;SDS011;7420;53.574;10.040;2022-07-22T11:51:39;7.65;;;2.40;;
14665;SDS011;7420;53.574;10.040;2022-07-22T11:54:05;7.65;;;2.45;;
14665;SDS011;7420;53.574;10.040;2022-07-22T11:56:31;6.47;;;2.63;;
14665;SDS011;7420;53.574;10.040;2022-07-22T11:58:57;5.63;;;2.22;;
14665;SDS011;7420;53.574;10.040;2022-07-22T12:01:24;5.78;;;2.42;;
14665;SDS011;7420;53.574;10.040;2022-07-22T12:03:59;7.03;;;2.10;;
14665;SDS011;7420;53.574;10.040;2022-07-22T12:06:27;11.00;;;2.63;;
14665;SDS011;7420;53.574;10.040;2022-07-22T12:08:55;5.78;;;2.65;;
14665;SDS011;7420;53.574;10.040;2022-07-22T12:11:42;7.50;;;2.30;;
14665;SDS011;7420;53.574;10.040;2022-07-22T12:14:13;6.30;;;1.98;;
14665;SDS011;7420;53.574;10.040;2022-07-22T12:16:43;6.13;;;2.42;;
14665;SDS011;7420;53.574;10.040;2022-07-22T12:19:18;3.38;;;2.13;;
14665;SDS011;7420;53.574;10.040;2022-07-22T12:21:54;7.40;;;3.15;;
14665;SDS011;7420;53.574;10.040;2022-07-22T12:24:34;5.50;;;2.53;;
14665;SDS011;7420;53.574;10.040;2022-07-22T12:27:01;5.45;;;2.53;;
14665;SDS011;7420;53.574;10.040;2022-07-22T12:32:00;4.80;;;2.80;;
14665;SDS011;7420;53.574;10.040;2022-07-22T12:34:54;9.55;;;2.25;;
14665;SDS011;7420;53.574;10.040;2022-07-22T12:39:59;4.43;;;2.20;;
14665;SDS011;7420;53.574;10.040;2022-07-22T12:42:25;6.10;;;2.40;;
14665;SDS011;7420;53.574;10.040;2022-07-22T12:45:03;6.20;;;2.20;;
14665;SDS011;7420;53.574;10.040;2022-07-22T12:47:43;7.82;;;2.80;;
14665;SDS011;7420;53.574;10.040;2022-07-22T12:50:14;7.55;;;2.28;;
14665;SDS011;7420;53.574;10.040;2022-07-22T12:53:03;5.28;;;2.10;;
14665;SDS011;7420;53.574;10.040;2022-07-22T12:55:35;3.25;;;2.38;;
14665;SDS011;7420;53.574;10.040;2022-07-22T12:58:03;7.78;;;1.90;;
14665;SDS011;7420;53.574;10.040;2022-07-22T13:00:34;3.42;;;2.15;;
14665;SDS011;7420;53.574;10.040;2022-07-22T13:03:03;5.03;;;2.60;;
14665;SDS011;7420;53.574;10.040;2022-07-22T13:05:29;4.60;;;1.88;;
14665;SDS011;7420;53.574;10.040;2022-07-22T13:07:54;4.68;;;1.83;;
14665;SDS011;7420;53.574;10.040;2022-07-22T13:10:21;5.45;;;2.10;;
14665;SDS011;7420;53.574;10.040;2022-07-22T13:12:47;4.50;;;2.20;;
14665;SDS011;7420;53.574;10.040;2022-07-22T13:15:13;5.28;;;1.90;;
14665;SDS011;7420;53.574;10.040;2022-07-22T13:17:39;8.30;;;2.53;;
14665;SDS011;7420;53.574;10.040;2022-07-22T13:20:06;4.43;;;2.15;;
14665;SDS011;7420;53.574;10.040;2022-07-22T13:22:33;6.80;;;2.15;;
14665;SDS011;7420;53.574;10.040;2022-07-22T13:24:59;7.30;;;2.35;;
14665;SDS011;7420;53.574;10.040;2022-07-22T13:27:24;6.28;;;2.13;;
14665;SDS011;7420;53.574;10.040;2022-07-22T13:29:50;4.15;;;2.22;;
14665;SDS011;7420;53.574;10.040;2022-07-22T13:32:15;3.20;;;2.20;;
14665;SDS011;7420;53.574;10.040;2022-07-22T13:34:41;6.72;;;2.05;;
14665;SDS011;7420;53.574;10.040;2022-07-22T13:37:06;7.25;;;2.30;;
14665;SDS011;7420;53.574;10.040;2022-07-22T13:39:31;5.53;;;2.65;;
14665;SDS011;7420;53.574;10.040;2022-07-22T13:41:57;4.82;;;2.13;;
14665;SDS011;7420;53.574;10.040;2022-07-22T13:44:22;3.30;;;2.00;;
14665;SDS011;7420;53.574;10.040;2022-07-22T13:46:48;5.78;;;2.10;;
14665;SDS011;7420;53.574;10.040;2022-07-22T13:49:14;7.10;;;2.72;;
14665;SDS011;7420;53.574;10.040;2022-07-22T13:51:39;4.03;;;2.10;;
14665;SDS011;7420;53.574;10.040;2022-07-22T13:54:05;5.13;;;2.42;;
14665;SDS011;7420;53.574;10.040;2022-07-22T13:56:31;6.75;;;2.30;;
14665;SDS011;7420;53.574;10.040;2022-07-22T13:58:57;5.90;;;2.05;;
14665;SDS011;7420;53.574;10.040;2022-07-22T14:01:23;6.38;;;2.42;;
14665;SDS011;7420;53.574;10.040;2022-07-22T14:03:48;4.32;;;2.45;;
14665;SDS011;7420;53.574;10.040;2022-07-22T14:06:14;4.85;;;2.00;;
14665;SDS011;7420;53.574;10.040;2022-07-22T14:08:39;4.05;;;2.13;;
14665;SDS011;7420;53.574;10.040;2022-07-22T14:11:04;10.35;;;2.53;;
14665;SDS011;7420;53.574;10.040;2022-07-22T14:13:30;4.63;;;1.98;;
14665;SDS011;7420;53.574;10.040;2022-07-22T14:15:55;3.88;;;2.00;;
14665;SDS011;7420;53.574;10.040;2022-07-22T14:18:20;3.75;;;2.10;;
14665;SDS011;7420;53.574;10.040;2022-07-22T14:20:46;7.35;;;2.22;;
14665;SDS011;7420;53.574;10.040;2022-07-22T14:23:12;8.25;;;2.35;;
14665;SDS011;7420;53.574;10.040;2022-07-22T14:25:38;6.25;;;2.20;;
14665;SDS011;7420;53.574;10.040;2022-07-22T14:28:05;3.10;;;2.00;;
14665;SDS011;7420;53.574;10.040;2022-07-22T14:30:31;8.00;;;2.22;;
14665;SDS011;7420;53.574;10.040;2022-07-22T14:32:57;5.22;;;2.55;;
14665;SDS011;7420;53.574;10.040;2022-07-22T14:35:24;5.05;;;2.13;;
14665;SDS011;7420;53.574;10.040;2022-07-22T14:37:49;5.55;;;2.45;;
14665;SDS011;7420;53.574;10.040;2022-07-22T14:40:14;6.43;;;2.00;;
14665;SDS011;7420;53.574;10.040;2022-07-22T14:42:40;4.85;;;2.08;;
14665;SDS011;7420;53.574;10.040;2022-07-22T14:45:06;6.03;;;2.45;;
14665;SDS011;7420;53.574;10.040;2022-07-22T14:47:34;3.22;;;2.05;;
14665;SDS011;7420;53.574;10.040;2022-07-22T14:50:03;6.78;;;2.28;;
14665;SDS011;7420;53.574;10.040;2022-07-22T14:52:29;3.92;;;2.10;;
14665;SDS011;7420;53.574;10.040;2022-07-22T14:54:55;4.32;;;2.15;;
14665;SDS011;7420;53.574;10.040;2022-07-22T14:57:20;4.80;;;2.10;;
14665;SDS011;7420;53.574;10.040;2022-07-22T14:59:45;3.30;;;2.08;;
14665;SDS011;7420;53.574;10.040;2022-07-22T15:02:10;5.75;;;2.10;;
14665;SDS011;7420;53.574;10.040;2022-07-22T15:04:36;4.40;;;2.22;;
14665;SDS011;7420;53.574;10.040;2022-07-22T15:07:01;4.43;;;2.20;;
14665;SDS011;7420;53.574;10.040;2022-07-22T15:09:27;8.32;;;2.28;;
14665;SDS011;7420;53.574;10.040;2022-07-22T15:11:53;5.93;;;2.30;;
14665;SDS011;7420;53.574;10.040;2022-07-22T15:14:19;5.93;;;2.25;;